Time;durP1;ratioP1;P1;durP2;ratioP2;P2;SDS_P1;SDS_P2;PMS_P1;PMS_P2;Temp;Humidity;BMP_temperature;BMP_pressure;BME280_temperature;BME280_humidity;BME280_pressure;Samples;Min_cycle;Max_cycle;Signal;HPM_P1;HPM_P2
2021/07/26 11:04:01;;;;;;;4.35;2.10;;;26.50;93.30;;;29.50;45.31;100020.03;6292617;22;20019;-86
2021/07/26 11:06:36;;;;;;;2.53;2.08;;;27.30;92.40;;;29.47;45.84;100021.03;6284753;22;20034;-88
2021/07/26 11:09:20;;;;;;;4.85;2.05;;;27.50;91.70;;;29.86;44.15;100018.69;6311516;22;20003;-89
2021/07/26 11:11:50;;;;;;;2.80;2.13;;;27.90;88.90;;;29.10;45.31;100008.47;6311124;22;20007;-88
2021/07/26 11:14:17;;;;;;;2.28;2.00;;;27.80;86.30;;;29.25;45.67;100012.13;6285460;22;20014;-87
2021/07/26 11:16:55;;;;;;;2.83;1.90;;;27.60;88.10;;;28.84;46.41;100005.47;6310893;22;20014;-88
2021/07/26 11:19:49;;;;;;;5.15;2.17;;;27.20;90.20;;;28.39;47.86;100006.00;6312450;22;20007;-85
2021/07/26 11:22:15;;;;;;;2.60;2.08;;;27.00;90.90;;;28.72;46.97;100004.50;6314593;22;20011;-87
2021/07/26 11:25:13;;;;;;;3.47;1.83;;;26.90;92.00;;;28.56;47.02;100007.88;6316203;22;20471;-87
2021/07/26 11:27:40;;;;;;;4.60;2.50;;;26.90;91.30;;;28.79;48.60;99994.69;6267681;22;20015;-88
2021/07/26 11:30:08;;;;;;;3.75;1.80;;;27.00;93.80;;;28.78;47.29;99999.63;6287921;22;20033;-90
2021/07/26 11:32:57;;;;;;;3.30;2.13;;;26.90;92.30;;;28.59;46.76;99997.47;6285737;22;20086;-90
2021/07/26 11:35:31;;;;;;;2.92;2.10;;;26.80;91.40;;;28.40;47.72;99990.34;6285568;22;20019;-88
2021/07/26 11:38:04;;;;;;;2.88;2.15;;;26.60;92.30;;;27.50;48.63;99987.06;6287838;22;20003;-88
2021/07/26 11:40:37;;;;;;;2.30;1.98;;;26.30;91.50;;;27.42;48.90;99980.88;6286416;22;20007;-89
2021/07/26 11:43:04;;;;;;;3.63;2.10;;;26.10;92.20;;;28.60;49.22;99987.56;6311778;22;20048;-88
2021/07/26 11:45:39;;;;;;;3.28;2.30;;;26.70;95.40;;;29.51;46.58;99987.06;6285016;22;20094;-88
2021/07/26 11:48:07;;;;;;;3.65;1.80;;;27.60;92.30;;;30.00;44.97;99982.41;6286447;22;20007;-89
2021/07/26 11:50:40;;;;;;;2.78;1.75;;;28.20;89.60;;;30.07;43.51;99985.66;6285966;22;20003;-89
2021/07/26 11:53:07;;;;;;;2.38;1.63;;;28.60;83.50;;;30.38;44.47;99979.09;6286203;22;20079;-87
2021/07/26 11:55:34;;;;;;;2.13;1.85;;;28.70;85.50;;;30.17;43.78;99989.94;6285767;22;20068;-86
2021/07/26 11:58:09;;;;;;;2.97;1.98;;;28.50;83.40;;;29.03;43.70;99989.53;6285847;22;20050;-87
2021/07/26 12:00:49;;;;;;;2.50;1.73;;;28.10;79.00;;;29.07;45.21;99986.47;6315950;22;20049;-87
2021/07/26 12:03:27;;;;;;;2.25;1.73;;;28.00;80.90;;;28.95;45.92;99978.97;6312310;22;20011;-87
2021/07/26 12:06:03;;;;;;;3.25;1.65;;;27.70;82.90;;;29.65;44.49;99976.78;6286260;22;20007;-86
2021/07/26 12:08:30;;;;;;;3.45;2.15;;;27.90;83.90;;;29.68;42.42;99982.31;6312161;22;20057;-88
2021/07/26 12:11:15;;;;;;;7.70;1.52;;;28.10;78.80;;;29.45;43.77;99977.59;6281266;22;20010;-85
2021/07/26 12:13:50;;;;;;;8.10;2.20;;;28.10;80.00;;;29.51;43.46;99972.69;6309403;22;20052;-86
2021/07/26 12:16:19;;;;;;;3.80;1.77;;;28.20;78.20;;;29.45;42.68;99971.84;6281748;22;20455;-89
2021/07/26 12:18:44;;;;;;;1.95;1.70;;;28.10;76.70;;;29.32;43.65;99967.72;6283227;22;20007;-90
2021/07/26 12:21:11;;;;;;;1.88;1.38;;;28.10;77.80;;;29.96;42.28;99970.34;6285271;22;20098;-90
2021/07/26 12:23:37;;;;;;;2.47;1.42;;;28.30;77.50;;;30.33;42.15;99957.63;6286635;22;20010;-88
2021/07/26 12:26:10;;;;;;;2.42;1.92;;;28.60;77.40;;;30.09;41.89;99964.97;6286811;22;20010;-87
2021/07/26 12:28:45;;;;;;;1.70;1.52;;;28.60;75.30;;;29.98;41.95;99962.00;6285230;22;20061;-88
2021/07/26 12:31:34;;;;;;;2.67;1.75;;;28.20;76.50;;;29.33;43.97;99952.88;6287351;22;20006;-89
2021/07/26 12:34:22;;;;;;;2.58;1.75;;;28.00;77.60;;;29.41;42.70;99950.34;6288472;22;20031;-89
2021/07/26 12:36:50;;;;;;;2.60;1.60;;;27.90;76.00;;;29.10;43.71;99965.31;6289522;22;20054;-87
2021/07/26 12:39:20;;;;;;;3.38;1.45;;;27.80;77.20;;;29.06;43.38;99956.16;6289336;22;20011;-88
2021/07/26 12:41:49;;;;;;;2.25;1.65;;;27.70;76.70;;;29.68;43.55;99950.66;6288761;22;20080;-88
2021/07/26 12:44:17;;;;;;;2.63;1.70;;;28.20;78.80;;;30.37;42.32;99948.75;6315319;22;20336;-86
2021/07/26 12:46:49;;;;;;;1.73;1.38;;;28.60;76.90;;;31.04;40.67;99955.81;6288289;22;20066;-89
2021/07/26 12:49:24;;;;;;;2.08;1.60;;;29.10;74.70;;;29.66;40.28;99959.03;6289318;22;20003;-88
2021/07/26 12:51:52;;;;;;;2.15;1.55;;;28.60;70.10;;;28.62;42.48;99954.16;6287577;22;20026;-88
2021/07/26 12:54:20;;;;;;;2.97;1.55;;;27.70;72.50;;;28.32;44.63;99946.09;6328064;22;20022;-87
2021/07/26 12:56:46;;;;;;;3.83;1.83;;;27.20;76.60;;;28.30;44.50;99952.34;6302255;22;20011;-87
2021/07/26 12:59:13;;;;;;;2.40;1.33;;;27.00;77.50;;;28.32;45.02;99949.75;6293917;22;20022;-92
2021/07/26 13:01:39;;;;;;;2.83;1.60;;;26.80;78.70;;;28.53;44.58;99942.78;6294103;22;20034;-91
2021/07/26 13:04:07;;;;;;;3.67;1.75;;;27.00;79.40;;;28.81;43.89;99951.06;6294069;22;20440;-87
2021/07/26 13:06:34;;;;;;;3.35;1.52;;;27.30;77.80;;;28.53;43.58;99951.41;6289618;22;20007;-87
2021/07/26 13:09:01;;;;;;;2.00;1.77;;;27.40;75.60;;;28.81;43.80;99951.84;6290098;22;20130;-86
2021/07/26 13:11:27;;;;;;;2.30;1.55;;;27.30;77.00;;;28.55;43.35;99945.16;6316547;22;20003;-87
2021/07/26 13:13:53;;;;;;;2.22;1.60;;;27.20;75.90;;;28.62;44.55;99947.63;6288854;22;20071;-88
2021/07/26 13:16:19;;;;;;;3.13;1.70;;;27.10;78.60;;;28.20;43.96;99947.97;6288532;22;20011;-87
2021/07/26 13:18:45;;;;;;;3.03;1.92;;;26.90;76.30;;;28.13;45.64;99951.25;6289977;22;20015;-88
2021/07/26 13:21:12;;;;;;;3.70;1.95;;;26.80;79.00;;;28.34;45.29;99952.13;6289215;22;20010;-90
2021/07/26 13:23:38;;;;;;;1.70;1.40;;;26.90;80.40;;;29.48;44.47;99955.63;6313757;22;20007;-85
2021/07/26 13:26:05;;;;;;;1.65;1.30;;;27.40;81.70;;;29.84;42.33;99954.25;6289176;22;20022;-87
2021/07/26 13:28:31;;;;;;;1.83;1.40;;;27.80;77.40;;;29.34;41.94;99945.03;6289062;22;20011;-88
2021/07/26 13:30:57;;;;;;;2.20;1.80;;;27.70;75.10;;;29.10;43.50;99956.69;6315490;22;20004;-86
2021/07/26 13:33:23;;;;;;;2.53;1.52;;;27.50;77.20;;;28.49;43.84;99959.44;6288110;22;20007;-86
2021/07/26 13:35:49;;;;;;;1.80;1.40;;;27.20;76.50;;;27.60;44.87;99957.03;6288395;22;20007;-86
2021/07/26 13:38:15;;;;;;;1.50;1.40;;;26.80;76.30;;;27.34;46.02;99951.00;6288845;22;20015;-87
2021/07/26 13:40:42;;;;;;;1.92;1.73;;;26.30;78.40;;;27.23;46.81;99950.75;6314995;22;20436;-86
2021/07/26 13:43:08;;;;;;;2.45;1.65;;;26.10;80.70;;;27.24;48.01;99949.50;6315238;22;20010;-87
2021/07/26 13:45:37;;;;;;;3.90;1.88;;;25.90;84.30;;;27.49;48.03;99942.47;6287602;22;20011;-89
2021/07/26 13:48:08;;;;;;;2.97;1.90;;;25.90;87.00;;;27.21;47.33;99948.41;6288905;22;20010;-85
2021/07/26 13:50:35;;;;;;;2.53;1.88;;;25.70;84.80;;;27.08;47.09;99953.59;6290142;22;20060;-87
2021/07/26 13:53:02;;;;;;;2.08;1.85;;;25.60;84.10;;;26.83;47.92;99954.06;6318785;22;20007;-86
2021/07/26 13:55:28;;;;;;;2.47;1.85;;;25.60;85.20;;;26.71;47.89;99947.25;6289401;22;19999;-89
2021/07/26 13:57:55;;;;;;;4.22;1.77;;;25.40;85.20;;;26.45;48.86;99945.31;6318662;22;19999;-90
2021/07/26 14:00:22;;;;;;;2.55;1.90;;;25.30;87.10;;;26.43;48.01;99940.06;6315657;22;20007;-87
2021/07/26 14:02:49;;;;;;;2.88;1.80;;;25.10;86.90;;;26.34;50.17;99947.91;6289168;22;20011;-87
2021/07/26 14:05:15;;;;;;;3.65;1.65;;;25.00;90.80;;;26.20;49.94;99952.25;6291241;22;20476;-86
2021/07/26 14:07:41;;;;;;;2.42;1.67;;;24.90;90.90;;;26.26;50.88;99943.81;6287476;22;20087;-89
2021/07/26 14:10:09;;;;;;;3.97;2.17;;;24.80;92.20;;;25.96;51.00;99955.00;6288119;22;20011;-87
2021/07/26 14:12:35;;;;;;;5.00;1.92;;;24.70;92.40;;;26.04;51.62;99941.94;6315731;22;20078;-87
2021/07/26 14:15:01;;;;;;;8.65;1.90;;;24.70;93.50;;;26.52;50.48;99936.41;6313932;22;20468;-86
2021/07/26 14:17:27;;;;;;;2.97;1.73;;;24.90;93.50;;;26.76;50.77;99945.78;6288032;22;20007;-88
2021/07/26 14:19:53;;;;;;;2.20;1.70;;;25.20;94.30;;;27.07;50.46;99948.31;6310803;22;20018;-88
2021/07/26 14:22:19;;;;;;;3.03;1.80;;;25.40;94.50;;;26.80;50.14;99957.88;6312588;22;20094;-88
2021/07/26 14:24:45;;;;;;;2.83;1.85;;;25.40;93.10;;;26.97;49.88;99964.03;6285938;22;20011;-85
2021/07/26 14:27:12;;;;;;;2.80;1.75;;;25.50;93.10;;;27.38;48.74;99956.56;6287299;22;20031;-86
2021/07/26 14:29:39;;;;;;;2.33;1.60;;;25.90;92.20;;;27.82;48.08;99965.25;6287451;22;20029;-86
2021/07/26 14:32:07;;;;;;;2.45;1.80;;;26.40;91.30;;;27.85;46.47;99945.00;6311751;22;20014;-85
2021/07/26 14:34:34;;;;;;;4.32;1.77;;;26.40;88.00;;;26.91;48.90;99938.09;6286998;22;20137;-90
2021/07/26 14:37:06;;;;;;;2.88;1.63;;;25.90;90.10;;;26.80;48.67;99942.75;6290097;22;20007;-88
2021/07/26 14:40:06;;;;;;;2.80;1.67;;;25.60;90.50;;;26.50;49.76;99936.84;6288944;22;20026;-88
2021/07/26 14:42:39;;;;;;;2.33;1.73;;;25.20;91.50;;;26.30;49.98;99919.44;6289402;22;20010;-88
2021/07/26 14:45:18;;;;;;;3.90;1.90;;;25.00;92.20;;;26.43;50.56;99925.75;6264790;22;20011;-89
2021/07/26 14:47:44;;;;;;;2.70;1.80;;;25.00;93.70;;;26.35;49.87;99932.31;6290743;22;20063;-91
2021/07/26 14:50:27;;;;;;;3.80;1.83;;;24.90;93.10;;;26.36;50.96;99931.06;6286979;22;20027;-90
2021/07/26 14:52:56;;;;;;;2.63;2.00;;;24.90;94.40;;;26.04;51.35;99944.00;6311559;22;19999;-87
2021/07/26 14:55:22;;;;;;;2.42;1.60;;;24.90;94.20;;;26.54;51.07;99939.56;6285358;22;20003;-88
2021/07/26 14:57:59;;;;;;;3.53;1.73;;;25.20;94.80;;;27.39;49.67;99940.94;6312522;22;20007;-88
2021/07/26 15:00:55;;;;;;;2.60;1.85;;;25.70;94.20;;;27.88;48.32;99943.19;6311840;22;20018;-89
2021/07/26 15:07:29;;;;;;;2.90;1.80;;;25.90;94.70;;;27.50;51.03;99944.06;6312527;22;20022;-88
2021/07/26 15:10:01;;;;;;;3.55;1.95;;;25.80;96.50;;;27.72;50.80;99950.22;6325715;22;20007;-87
2021/07/26 15:12:28;;;;;;;3.05;1.67;;;25.90;96.80;;;27.18;50.27;99942.84;6320963;22;20152;-87
2021/07/26 15:15:00;;;;;;;2.92;1.95;;;25.70;94.90;;;27.60;51.77;99943.47;6286638;22;20067;-94
2021/07/26 15:17:33;;;;;;;2.42;1.80;;;25.90;98.30;;;27.48;50.58;99950.28;6287100;22;20058;-90
2021/07/26 15:20:10;;;;;;;2.58;2.00;;;26.00;96.00;;;27.45;49.42;99961.94;6290119;22;20011;-91
2021/07/26 15:22:39;;;;;;;3.53;2.25;;;26.00;94.30;;;27.06;50.98;99953.28;6287267;22;20332;-88
2021/07/26 15:28:27;;;;;;;2.42;1.65;;;25.90;96.30;;;26.98;50.08;99957.00;6302216;22;20456;-91
2021/07/26 15:31:23;;;;;;;2.40;1.70;;;25.70;93.90;;;27.45;50.69;99951.28;6286035;22;20098;-86
2021/07/26 15:34:10;;;;;;;2.97;1.67;;;25.80;95.80;;;27.38;50.12;99957.34;6290345;22;20015;-89
2021/07/26 15:37:23;;;;;;;2.97;1.88;;;25.80;97.10;;;27.19;51.35;99958.78;6287310;22;20010;-86
2021/07/26 15:40:35;;;;;;;4.15;1.95;;;25.70;96.90;;;26.93;51.96;99957.66;6164010;23;20005;-86
2021/07/26 15:43:22;;;;;;;2.10;1.77;;;25.40;97.70;;;26.64;52.94;99958.28;6185977;22;20114;-87
2021/07/26 15:45:48;;;;;;;5.95;2.30;;;25.00;99.70;;;26.58;52.68;99949.56;6286457;22;20364;-87
2021/07/26 15:48:18;;;;;;;3.00;2.42;;;24.90;99.90;;;26.32;53.05;99942.69;6286283;22;20022;-88
2021/07/26 15:50:50;;;;;;;2.67;1.98;;;24.80;99.90;;;26.56;53.38;99942.72;6287420;22;20011;-90
2021/07/26 15:53:19;;;;;;;3.47;2.10;;;24.90;99.90;;;27.09;52.46;99940.06;6286723;22;20010;-91
2021/07/26 15:55:51;;;;;;;4.47;3.10;;;25.20;99.90;;;27.41;50.38;99935.50;6286518;22;20004;-90
2021/07/26 15:58:17;;;;;;;4.47;2.63;;;25.50;98.90;;;27.85;50.86;99939.25;6287162;22;19999;-88
2021/07/26 16:00:48;;;;;;;3.30;2.30;;;25.80;99.90;;;28.20;49.29;99937.28;6287095;22;20019;-90
2021/07/26 16:03:14;;;;;;;3.17;2.50;;;26.10;98.00;;;28.32;49.25;99926.78;6287376;22;20011;-88
2021/07/26 16:05:44;;;;;;;6.70;2.38;;;26.30;97.80;;;28.55;46.77;99934.47;6289267;22;20003;-93
2021/07/26 16:08:15;;;;;;;4.82;2.55;;;26.50;94.50;;;28.40;47.74;99939.44;6289396;22;20010;-88
2021/07/26 16:10:56;;;;;;;4.03;2.63;;;26.60;93.70;;;28.05;47.79;99941.44;6288636;22;20007;-90
2021/07/26 16:13:37;;;;;;;2.50;2.22;;;26.40;93.90;;;27.55;48.82;99941.28;6290256;22;20090;-90
2021/07/26 16:16:06;;;;;;;4.65;2.78;;;26.00;94.40;;;27.47;49.17;99937.22;6289142;22;20018;-89
2021/07/26 16:18:32;;;;;;;2.55;2.05;;;25.80;94.70;;;27.54;49.15;99942.59;6288968;22;20007;-87
2021/07/26 16:20:57;;;;;;;4.72;2.80;;;25.80;95.60;;;27.79;49.67;99941.22;6289184;22;20014;-90
2021/07/26 16:23:25;;;;;;;4.18;2.35;;;25.90;96.90;;;27.84;49.53;99942.63;6288570;22;20003;-88
2021/07/26 16:25:51;;;;;;;3.58;2.13;;;25.90;96.70;;;27.60;48.59;99934.09;6287334;22;20008;-89
2021/07/26 16:28:17;;;;;;;3.10;2.50;;;25.70;94.90;;;27.38;49.89;99943.00;6320284;22;20003;-86
2021/07/26 16:30:54;;;;;;;3.22;2.30;;;25.60;96.70;;;27.12;50.51;99951.34;6321556;22;20003;-90
2021/07/26 16:33:20;;;;;;;3.55;2.25;;;25.40;97.90;;;26.92;51.16;99941.75;6295676;22;20003;-85
2021/07/26 16:35:50;;;;;;;2.88;2.17;;;25.20;98.60;;;26.58;51.79;99943.03;6296267;22;20011;-87
2021/07/26 16:38:18;;;;;;;4.20;2.38;;;25.00;98.90;;;26.17;53.39;99938.91;6293254;22;20027;-87
2021/07/26 16:40:47;;;;;;;3.53;2.45;;;24.70;99.90;;;26.09;53.89;99951.94;6284973;22;20018;-90
2021/07/26 16:43:13;;;;;;;2.50;2.30;;;24.50;99.90;;;25.94;53.94;99943.25;6311078;22;20417;-87
2021/07/26 16:45:39;;;;;;;2.67;2.35;;;24.40;99.90;;;25.88;54.31;99942.28;6285435;22;20060;-88
2021/07/26 16:48:06;;;;;;;4.10;2.42;;;24.20;99.90;;;25.80;54.84;99937.38;6285257;22;20008;-89
2021/07/26 16:50:32;;;;;;;3.25;2.30;;;24.10;99.90;;;25.70;54.81;99945.19;6285542;22;20035;-87
2021/07/26 16:52:57;;;;;;;3.70;2.50;;;24.00;99.90;;;25.51;56.54;99946.47;6285265;22;20003;-88
2021/07/26 16:55:23;;;;;;;4.40;2.55;;;23.90;99.90;;;25.39;56.86;99939.63;6285143;22;20026;-88
2021/07/26 16:57:49;;;;;;;3.05;2.25;;;23.80;99.90;;;25.44;56.94;99938.19;6311202;22;20007;-88
2021/07/26 17:00:16;;;;;;;5.07;2.75;;;23.70;99.90;;;25.39;57.59;99944.53;6285941;22;20026;-87
2021/07/26 17:02:42;;;;;;;4.30;2.45;;;23.70;99.90;;;25.05;57.87;99943.56;6311531;22;20103;-87
2021/07/26 17:05:09;;;;;;;5.03;2.63;;;23.60;99.90;;;25.22;57.78;99955.50;6312184;22;20034;-89
2021/07/26 17:07:36;;;;;;;4.22;3.17;;;23.50;99.90;;;25.12;58.88;99939.59;6288189;22;20087;-90
2021/07/26 17:10:03;;;;;;;2.83;2.53;;;23.50;99.90;;;25.04;58.94;99939.09;6288612;22;20007;-91
2021/07/26 17:12:29;;;;;;;3.53;2.22;;;23.50;99.90;;;24.98;59.18;99934.53;6316380;22;20078;-89
2021/07/26 17:14:55;;;;;;;3.83;2.20;;;23.40;99.90;;;24.74;59.26;99937.13;6290049;22;20000;-89
2021/07/26 17:17:21;;;;;;;3.58;2.63;;;23.30;99.90;;;24.76;59.84;99942.34;6291225;22;20018;-87
2021/07/26 17:19:47;;;;;;;3.85;2.28;;;23.20;99.90;;;24.65;60.13;99935.06;6291286;22;20014;-87
2021/07/26 17:22:15;;;;;;;3.33;2.67;;;23.10;99.90;;;24.61;59.99;99934.41;6291769;22;20007;-87
2021/07/26 17:24:42;;;;;;;4.35;2.53;;;23.00;99.90;;;24.57;60.29;99930.09;6297465;22;20003;-87
2021/07/26 17:27:08;;;;;;;3.25;2.28;;;22.90;99.90;;;24.52;61.10;99930.72;6323430;22;20071;-88
2021/07/26 17:29:36;;;;;;;3.83;2.33;;;22.90;99.90;;;24.47;61.32;99940.69;6291616;22;20018;-89
2021/07/26 17:32:03;;;;;;;4.90;2.38;;;22.90;99.90;;;24.41;60.87;99931.16;6293398;22;20004;-91
2021/07/26 17:34:30;;;;;;;3.42;2.28;;;22.80;99.90;;;24.45;60.92;99928.97;6293694;22;20017;-86
2021/07/26 17:37:00;;;;;;;3.58;2.30;;;22.80;99.90;;;24.42;60.97;99926.25;6294024;22;20011;-88
2021/07/26 17:39:26;;;;;;;5.10;2.50;;;22.80;99.90;;;24.46;60.97;99926.91;6297140;22;20033;-88
2021/07/26 17:41:52;;;;;;;4.45;2.53;;;22.80;99.90;;;24.35;61.50;99926.53;6290045;22;20429;-89
2021/07/26 17:44:19;;;;;;;4.45;2.30;;;22.80;99.90;;;24.46;60.50;99930.56;6284896;22;20014;-90
2021/07/26 17:46:45;;;;;;;4.18;2.20;;;22.90;99.90;;;24.56;59.55;99922.81;6281812;22;20011;-89
2021/07/26 17:49:14;;;;;;;2.38;2.13;;;23.00;99.90;;;24.66;58.28;99925.19;6281661;22;20003;-87
2021/07/26 17:51:40;;;;;;;2.47;1.90;;;23.10;99.90;;;24.73;57.23;99926.16;6281366;22;20007;-88
2021/07/26 17:54:06;;;;;;;3.67;1.67;;;23.20;99.90;;;24.80;55.94;99928.72;6308801;22;20329;-88
2021/07/26 17:56:35;;;;;;;3.20;1.50;;;23.30;99.90;;;24.86;56.08;99915.44;6309204;22;20014;-86
2021/07/26 17:59:01;;;;;;;1.90;1.60;;;23.40;99.90;;;24.95;56.17;99921.16;6281522;22;20042;-89
2021/07/26 18:01:41;;;;;;;3.20;2.00;;;23.50;99.90;;;25.07;55.71;99925.97;6280822;22;20015;-88
2021/07/26 18:04:08;;;;;;;1.95;1.70;;;23.60;99.90;;;25.18;55.44;99923.41;6281115;22;20062;-89
2021/07/26 18:06:53;;;;;;;3.17;1.80;;;23.60;99.90;;;25.15;55.49;99933.72;6279575;22;20011;-87
2021/07/26 18:09:25;;;;;;;1.63;1.40;;;23.60;99.90;;;24.90;57.25;99936.06;6280835;22;20011;-89
2021/07/26 18:11:55;;;;;;;2.20;1.67;;;23.60;99.90;;;24.79;56.68;99930.78;6280924;22;20007;-90
2021/07/26 18:14:31;;;;;;;2.28;1.90;;;23.50;99.90;;;24.56;57.89;99923.59;6280370;22;20003;-92
2021/07/26 18:17:00;;;;;;;2.47;1.67;;;23.30;99.90;;;24.54;58.63;99925.31;6257965;22;20053;-87
2021/07/26 18:19:50;;;;;;;2.75;1.95;;;23.20;99.90;;;24.39;58.93;99933.69;6308321;22;20014;-87
2021/07/26 18:22:17;;;;;;;2.58;1.70;;;23.10;99.90;;;24.26;59.81;99926.50;6280561;22;20011;-86
2021/07/26 18:24:49;;;;;;;4.40;1.83;;;22.90;99.90;;;24.19;60.33;99927.56;6281167;22;20014;-88
2021/07/26 18:27:15;;;;;;;3.45;1.98;;;22.90;99.90;;;24.28;60.18;99939.03;6281894;22;20310;-86
2021/07/26 18:29:45;;;;;;;2.20;1.77;;;22.80;99.90;;;24.24;60.48;99931.88;6282068;22;20425;-88
2021/07/26 18:32:15;;;;;;;2.70;1.50;;;22.80;99.90;;;24.11;61.24;99931.94;6280304;22;20137;-87
2021/07/26 18:34:44;;;;;;;2.35;1.95;;;22.70;99.90;;;23.84;62.50;99931.78;6280452;22;20086;-87
2021/07/26 18:37:13;;;;;;;3.15;1.88;;;22.50;99.90;;;23.92;62.72;99936.75;6281691;22;20003;-90
2021/07/26 18:39:39;;;;;;;2.95;2.10;;;22.50;99.90;;;23.89;62.96;99939.75;6281436;22;20011;-88
2021/07/26 18:42:09;;;;;;;2.28;1.80;;;22.50;99.90;;;23.84;63.38;99938.28;6280897;22;20003;-89
2021/07/26 18:44:38;;;;;;;4.68;2.10;;;22.30;99.90;;;23.62;63.96;99948.91;6281435;22;20017;-90
2021/07/26 18:47:07;;;;;;;2.15;1.75;;;22.20;99.90;;;23.50;65.30;99952.63;6278877;22;20017;-89
2021/07/26 18:49:39;;;;;;;2.92;1.90;;;22.20;99.90;;;23.51;65.43;99957.06;6256578;22;20021;-88
2021/07/26 18:52:05;;;;;;;4.93;2.20;;;22.10;99.90;;;23.40;66.37;99968.06;6281668;22;20129;-87
2021/07/26 18:54:45;;;;;;;2.47;2.10;;;22.00;99.90;;;23.34;67.39;99967.03;6306797;22;20022;-90
2021/07/26 18:57:11;;;;;;;4.57;2.72;;;21.90;99.90;;;23.24;67.62;99977.53;6281497;22;20049;-90
2021/07/26 18:59:40;;;;;;;3.30;2.30;;;21.80;99.90;;;23.17;68.71;99974.94;6280811;22;20476;-86
2021/07/26 19:02:12;;;;;;;2.58;2.30;;;21.80;99.90;;;23.15;68.91;99977.44;6278009;22;20044;-89
2021/07/26 19:04:39;;;;;;;3.42;2.60;;;21.70;99.90;;;23.04;69.56;99982.72;6271494;22;20004;-88
2021/07/26 19:07:05;;;;;;;5.97;2.60;;;21.60;99.90;;;22.94;69.62;99984.69;6245998;23;20365;-88
2021/07/26 19:10:03;;;;;;;3.15;2.35;;;21.60;99.90;;;22.82;70.18;99974.13;6246036;23;20090;-89
2021/07/26 19:14:07;;;;;;;5.20;2.55;;;21.50;99.90;;;22.67;71.47;99983.59;6245737;23;20023;-92
2021/07/26 19:17:12;;;;;;;3.00;2.50;;;21.40;99.90;;;22.55;72.23;99985.13;6016501;23;20365;-90
2021/07/26 19:19:54;;;;;;;4.30;2.42;;;21.20;99.90;;;22.42;72.96;99996.53;6135405;23;20480;-88
2021/07/26 19:22:43;;;;;;;4.10;3.15;;;21.20;99.90;;;22.38;73.37;99986.53;6220134;23;20442;-86
2021/07/26 19:25:54;;;;;;;6.30;3.22;;;21.10;99.90;;;22.24;74.12;99989.78;6215754;23;20011;-90
2021/07/26 19:28:37;;;;;;;5.30;3.13;;;21.10;99.90;;;22.18;74.24;99988.78;6204916;23;20008;-88
2021/07/26 19:44:16;;;;;;;3.53;2.58;;;20.60;99.90;;;21.99;75.87;100028.28;6242504;22;20020;-89
2021/07/26 19:46:55;;;;;;;4.38;2.65;;;20.60;99.90;;;21.89;76.32;100025.78;6201868;23;20023;-91
2021/07/26 19:50:06;;;;;;;4.00;2.92;;;20.40;99.90;;;21.84;76.59;100040.50;6201430;23;20035;-87
2021/07/26 19:52:43;;;;;;;5.82;3.08;;;20.40;99.90;;;21.81;76.34;100049.94;6226914;23;20012;-90
2021/07/26 19:55:10;;;;;;;6.70;2.90;;;20.30;99.90;;;21.77;73.53;100057.78;6174637;23;20011;-89
2021/07/26 19:57:39;;;;;;;3.10;2.75;;;20.40;99.90;;;21.84;73.02;100051.88;6250512;23;20007;-89
2021/07/26 20:00:07;;;;;;;2.95;2.00;;;20.30;99.90;;;21.82;72.75;100060.88;6225588;23;20291;-88
2021/07/26 20:02:33;;;;;;;3.00;2.40;;;20.30;99.90;;;21.80;73.20;100062.56;6220149;23;20288;-87
2021/07/26 20:05:00;;;;;;;4.10;2.40;;;20.30;99.90;;;21.73;72.96;100069.25;6220298;23;20008;-87
2021/07/26 20:07:25;;;;;;;4.35;2.50;;;20.20;99.90;;;21.68;73.18;100072.63;6219360;23;20009;-88
2021/07/26 20:09:53;;;;;;;7.97;3.03;;;20.20;99.90;;;21.64;72.97;100071.13;6219395;23;20012;-89
2021/07/26 20:12:23;;;;;;;3.47;2.80;;;20.10;99.90;;;21.64;71.63;100082.50;6219664;23;20008;-89
2021/07/26 20:14:48;;;;;;;3.60;2.53;;;20.10;99.90;;;21.64;70.91;100077.59;6218490;23;20027;-89
2021/07/26 20:17:14;;;;;;;2.78;2.20;;;20.10;99.90;;;21.67;71.28;100085.25;6219884;23;20382;-88
2021/07/26 20:19:40;;;;;;;4.30;2.47;;;20.20;99.90;;;21.68;70.74;100086.84;6219342;23;20094;-90
2021/07/26 20:22:12;;;;;;;2.97;2.42;;;20.10;99.90;;;21.68;69.77;100094.56;6218822;23;20015;-86
2021/07/26 20:24:38;;;;;;;3.25;2.15;;;20.10;99.90;;;21.69;70.01;100084.78;6218998;23;20015;-87
2021/07/26 20:27:05;;;;;;;3.63;2.35;;;20.10;99.90;;;21.67;70.36;100092.97;6218023;23;20012;-89
2021/07/26 20:29:33;;;;;;;2.50;2.25;;;20.10;99.90;;;21.61;70.50;100094.78;6218474;23;20384;-88
2021/07/26 20:32:21;;;;;;;4.72;2.35;;;20.10;99.90;;;21.51;70.93;100091.75;6220212;23;20066;-88
2021/07/26 20:34:51;;;;;;;2.72;2.05;;;20.00;99.90;;;21.47;70.93;100096.75;6217795;23;20058;-90
2021/07/26 20:37:54;;;;;;;4.32;2.58;;;20.00;99.90;;;21.51;70.61;100097.41;6219621;23;20062;-89
2021/07/26 20:40:30;;;;;;;3.20;2.30;;;20.00;99.90;;;21.55;70.69;100100.16;6220395;23;20008;-90
2021/07/26 20:42:56;;;;;;;5.20;2.40;;;20.00;99.90;;;21.58;70.99;100101.34;6220406;23;20008;-88
2021/07/26 20:45:23;;;;;;;3.10;2.70;;;20.00;99.90;;;21.59;71.37;100106.56;6167129;23;20017;-89
2021/07/26 20:47:50;;;;;;;3.30;2.53;;;20.00;99.90;;;21.54;71.61;100107.13;6191559;23;20386;-90
2021/07/26 20:50:36;;;;;;;2.90;2.30;;;20.00;99.90;;;21.52;71.96;100101.88;6192070;23;20159;-90
2021/07/26 20:53:05;;;;;;;4.03;2.90;;;20.00;99.90;;;21.48;72.32;100095.47;6190570;23;20008;-89
2021/07/26 20:55:34;;;;;;;4.35;2.53;;;20.00;99.90;;;21.40;73.43;100105.44;6190734;23;20012;-88
2021/07/26 20:58:45;;;;;;;4.03;2.47;;;19.90;99.90;;;21.19;74.91;100105.19;6190410;23;20055;-87
2021/07/26 21:01:32;;;;;;;4.10;2.50;;;19.90;99.90;;;21.16;75.61;100104.00;6192005;23;20005;-86
2021/07/26 21:04:07;;;;;;;2.88;2.35;;;19.90;99.90;;;21.13;76.00;100096.38;6191242;23;20035;-90
2021/07/26 21:06:36;;;;;;;7.30;2.45;;;19.80;99.90;;;21.22;75.90;100095.78;6190118;23;20328;-90
2021/07/26 21:09:05;;;;;;;3.72;2.42;;;19.80;99.90;;;21.23;75.81;100101.00;6189990;23;20091;-87
2021/07/26 21:11:32;;;;;;;5.53;2.65;;;19.80;99.90;;;21.20;75.99;100109.59;6191278;23;20011;-87
2021/07/26 21:14:02;;;;;;;3.28;2.55;;;19.80;99.90;;;21.06;77.03;100101.41;6190040;23;20005;-87
2021/07/26 21:16:38;;;;;;;4.07;2.63;;;19.70;99.90;;;20.87;78.12;100105.94;6217807;23;20005;-87
2021/07/26 21:19:05;;;;;;;2.95;2.03;;;19.60;99.90;;;20.92;77.58;100106.19;6191055;23;20392;-90
2021/07/26 21:21:36;;;;;;;5.60;2.92;;;19.60;99.90;;;20.84;78.11;100107.59;6190469;23;20009;-87
2021/07/26 21:24:09;;;;;;;3.72;2.72;;;19.50;99.90;;;20.74;78.68;100107.84;6191411;23;20009;-86
2021/07/26 21:26:47;;;;;;;5.57;2.50;;;19.30;99.90;;;20.59;79.88;100109.41;6167738;23;20099;-88
2021/07/26 21:29:19;;;;;;;4.68;2.70;;;19.30;99.90;;;20.43;80.81;100110.94;6190823;23;20446;-87
2021/07/26 21:32:08;;;;;;;3.08;2.63;;;19.20;99.90;;;20.38;81.32;100105.81;6191081;23;20005;-87
2021/07/26 21:35:18;;;;;;;3.47;2.80;;;19.10;99.90;;;20.33;81.90;100114.00;6190784;23;20036;-90
2021/07/26 21:38:31;;;;;;;5.22;3.08;;;19.00;99.90;;;20.27;82.16;100110.09;6195690;23;20379;-85
2021/07/26 21:40:58;;;;;;;3.95;2.58;;;18.90;99.90;;;20.14;83.13;100109.91;6193010;23;20035;-86
2021/07/26 21:43:26;;;;;;;4.55;3.08;;;18.90;99.90;;;20.14;83.54;100114.78;6198280;23;20019;-90
2021/07/26 21:45:52;;;;;;;3.45;2.50;;;18.80;99.90;;;20.14;83.52;100109.09;6222604;23;20047;-89
2021/07/26 21:48:18;;;;;;;5.65;2.97;;;18.80;99.90;;;20.12;83.81;100109.56;6222444;23;20012;-86
2021/07/26 21:51:36;;;;;;;3.92;2.88;;;18.80;99.90;;;20.07;84.46;100117.78;6222676;23;20007;-86
2021/07/26 22:34:49;;;;;;;5.60;3.40;;;17.90;99.90;;;19.29;90.83;100128.47;6215277;22;20024;-87
2021/07/26 22:37:15;;;;;;;4.50;3.20;;;18.00;99.90;;;19.30;90.74;100135.72;6217613;23;20406;-89
2021/07/26 22:39:41;;;;;;;6.30;3.38;;;17.90;99.90;;;19.27;91.27;100132.94;6192318;23;20489;-88
2021/07/26 22:42:10;;;;;;;4.70;3.75;;;17.90;99.90;;;19.30;91.24;100129.25;6205522;23;20008;-90
2021/07/26 22:44:39;;;;;;;4.32;3.80;;;18.00;99.90;;;19.27;91.41;100128.09;6221894;23;20098;-89